Time;durP1;ratioP1;P1;durP2;ratioP2;P2;SDS_P1;SDS_P2;PMS_P1;PMS_P2;Temp;Humidity;BMP_temperature;BMP_pressure;BME280_temperature;BME280_humidity;BME280_pressure;Samples;Min_cycle;Max_cycle;Signal;HPM_P1;HPM_P2
2022/05/22 00:02:21;;;;;;;;;;;25.70;41.20;;;;;;5116722;28;1799;-35
2022/05/22 00:04:48;;;;;;;;;;;25.70;41.20;;;;;;5117297;28;1793;-36
2022/05/22 00:07:14;;;;;;;;;;;25.70;41.20;;;;;;5116018;28;935;-35
2022/05/22 00:09:41;;;;;;;;;;;25.70;41.20;;;;;;5116081;28;945;-35
2022/05/22 00:12:09;;;;;;;;;;;25.70;41.20;;;;;;5117133;28;937;-35
2022/05/22 00:14:37;;;;;;;;;;;25.70;41.20;;;;;;5116992;28;985;-35
2022/05/22 00:17:06;;;;;;;;;;;25.70;41.20;;;;;;5115952;28;1020;-34
2022/05/22 00:19:33;;;;;;;;;;;25.80;41.20;;;;;;5116050;28;1909;-35
2022/05/22 00:22:00;;;;;;;;;;;25.80;41.20;;;;;;5116140;28;1030;-35
2022/05/22 00:24:28;;;;;;;;;;;25.80;41.20;;;;;;5117020;28;1012;-35
2022/05/22 00:26:55;;;;;;;;;;;25.80;41.20;;;;;;5117779;28;991;-34
2022/05/22 00:29:22;;;;;;;;;;;25.80;41.20;;;;;;5116223;28;945;-34
2022/05/22 00:31:50;;;;;;;;;;;25.80;41.20;;;;;;5118496;28;987;-35
2022/05/22 00:34:17;;;;;;;;;;;25.80;41.20;;;;;;5118227;28;1436;-35
2022/05/22 00:36:43;;;;;;;;;;;25.80;41.20;;;;;;5118383;28;925;-34
2022/05/22 00:39:10;;;;;;;;;;;25.80;41.20;;;;;;5117222;28;1902;-34
2022/05/22 00:41:37;;;;;;;;;;;25.80;41.20;;;;;;5116426;28;892;-35
2022/05/22 00:44:05;;;;;;;;;;;25.80;41.20;;;;;;5116032;28;929;-35
2022/05/22 00:46:32;;;;;;;;;;;25.80;41.20;;;;;;5116400;28;1000;-34
2022/05/22 00:49:02;;;;;;;;;;;25.80;41.20;;;;;;5116081;28;993;-34
2022/05/22 00:51:31;;;;;;;;;;;25.80;41.10;;;;;;5115685;28;1766;-35
2022/05/22 00:54:00;;;;;;;;;;;25.80;41.10;;;;;;5116774;28;1052;-34
2022/05/22 00:56:33;;;;;;;;;;;25.80;41.10;;;;;;5116509;28;989;-35
2022/05/22 00:59:00;;;;;;;;;;;25.80;41.00;;;;;;5115515;28;1986;-35
2022/05/22 01:01:27;;;;;;;;;;;25.80;41.00;;;;;;5116035;28;1013;-35
2022/05/22 01:03:54;;;;;;;;;;;25.80;41.10;;;;;;5115595;28;1000;-35
2022/05/22 01:06:25;;;;;;;;;;;25.80;41.10;;;;;;5115695;28;992;-35
2022/05/22 01:08:52;;;;;;;;;;;25.90;41.10;;;;;;5116631;28;1024;-44
2022/05/22 01:11:21;;;;;;;;;;;25.90;41.10;;;;;;5115956;28;952;-44
2022/05/22 01:13:52;;;;;;;;;;;25.90;41.10;;;;;;5117823;28;984;-44
2022/05/22 01:16:19;;;;;;;;;;;25.80;41.00;;;;;;5116538;28;1169;-44
2022/05/22 01:18:47;;;;;;;;;;;25.90;41.00;;;;;;5117659;28;1909;-44
2022/05/22 01:21:15;;;;;;;;;;;25.90;41.00;;;;;;5120515;28;944;-44
2022/05/22 01:23:43;;;;;;;;;;;25.90;41.00;;;;;;5120962;28;1009;-44
2022/05/22 01:26:10;;;;;;;;;;;25.90;41.00;;;;;;5119896;28;950;-43
2022/05/22 01:28:37;;;;;;;;;;;25.90;41.00;;;;;;5121162;28;970;-45
2022/05/22 01:31:05;;;;;;;;;;;25.90;41.00;;;;;;5120364;28;849;-44
2022/05/22 01:33:33;;;;;;;;;;;25.90;41.00;;;;;;5120706;28;949;-44
2022/05/22 01:36:00;;;;;;;;;;;25.90;40.90;;;;;;5120753;28;1015;-44
2022/05/22 01:38:27;;;;;;;;;;;26.00;41.00;;;;;;5119428;28;1902;-44
2022/05/22 01:40:55;;;;;;;;;;;25.90;40.80;;;;;;5119951;28;960;-44
2022/05/22 01:43:22;;;;;;;;;;;26.00;42.10;;;;;;5119909;28;1020;-44
2022/05/22 01:45:49;;;;;;;;;;;26.00;40.90;;;;;;5119745;28;1085;-43
2022/05/22 01:48:16;;;;;;;;;;;26.00;40.90;;;;;;5119555;28;937;-44
2022/05/22 01:50:43;;;;;;;;;;;26.00;40.90;;;;;;5119947;28;925;-44
2022/05/22 01:53:09;;;;;;;;;;;25.90;40.80;;;;;;5120703;28;969;-44
2022/05/22 01:55:36;;;;;;;;;;;26.00;40.80;;;;;;5120504;28;1003;-43
2022/05/22 01:58:06;;;;;;;;;;;26.00;40.80;;;;;;5120141;27;1906;-44
2022/05/22 02:00:33;;;;;;;;;;;26.00;40.80;;;;;;5120514;28;1091;-35
2022/05/22 02:03:00;;;;;;;;;;;26.00;40.70;;;;;;5121835;28;1020;-35
2022/05/22 02:05:27;;;;;;;;;;;26.10;40.70;;;;;;5121727;28;1205;-35
2022/05/22 02:10:38;;;;;;;;;;;26.00;40.70;;;;;;5121129;28;616;-35
2022/05/22 02:13:07;;;;;;;;;;;26.00;40.60;;;;;;5120703;28;1072;-35
2022/05/22 02:15:34;;;;;;;;;;;26.10;40.70;;;;;;5120236;28;938;-35
2022/05/22 02:18:01;;;;;;;;;;;26.00;40.70;;;;;;5120901;28;1979;-35
2022/05/22 02:20:27;;;;;;;;;;;26.00;40.70;;;;;;5120240;28;1011;-35
2022/05/22 02:22:55;;;;;;;;;;;26.00;40.70;;;;;;5120467;28;932;-35
2022/05/22 02:25:23;;;;;;;;;;;26.00;40.60;;;;;;5121670;28;1031;-36
2022/05/22 02:27:50;;;;;;;;;;;26.00;40.70;;;;;;5120952;28;1441;-35
2022/05/22 02:30:19;;;;;;;;;;;26.00;40.70;;;;;;5120272;28;911;-36
2022/05/22 02:32:46;;;;;;;;;;;26.10;40.60;;;;;;5121000;28;961;-36
2022/05/22 02:38:16;;;;;;;;;;;26.10;40.70;;;;;;5119961;28;1973;-35
2022/05/22 02:40:43;;;;;;;;;;;26.00;40.60;;;;;;5120420;28;937;-35
2022/05/22 02:43:10;;;;;;;;;;;26.00;40.70;;;;;;5120222;28;989;-35
2022/05/22 02:45:39;;;;;;;;;;;26.00;40.60;;;;;;5119851;28;936;-36
2022/05/22 02:48:06;;;;;;;;;;;26.00;40.60;;;;;;5119975;28;988;-35
2022/05/22 02:50:34;;;;;;;;;;;26.00;40.60;;;;;;5120251;28;1008;-36
2022/05/22 02:53:00;;;;;;;;;;;26.00;40.60;;;;;;5120542;28;1860;-44
2022/05/22 02:55:27;;;;;;;;;;;26.00;40.60;;;;;;5120459;28;967;-44
2022/05/22 02:57:54;;;;;;;;;;;26.00;40.60;;;;;;5120282;28;949;-44
2022/05/22 03:00:22;;;;;;;;;;;26.10;40.60;;;;;;5119569;28;1990;-44
2022/05/22 03:02:50;;;;;;;;;;;26.10;40.50;;;;;;5119707;28;1027;-44
2022/05/22 03:05:17;;;;;;;;;;;26.10;40.50;;;;;;5120477;28;925;-44
2022/05/22 03:07:44;;;;;;;;;;;26.10;40.60;;;;;;5120159;28;988;-44
2022/05/22 03:10:12;;;;;;;;;;;26.10;40.60;;;;;;5120226;28;1012;-44
2022/05/22 03:12:39;;;;;;;;;;;26.10;40.60;;;;;;5120149;28;980;-43
2022/05/22 03:15:06;;;;;;;;;;;26.00;40.60;;;;;;5120443;28;967;-44
2022/05/22 03:17:33;;;;;;;;;;;26.10;40.50;;;;;;5118831;28;960;-44
2022/05/22 03:20:01;;;;;;;;;;;26.10;40.60;;;;;;5118072;28;1905;-43
2022/05/22 03:22:29;;;;;;;;;;;26.10;40.50;;;;;;5118617;28;940;-44
2022/05/22 03:24:55;;;;;;;;;;;26.10;40.60;;;;;;5119064;28;956;-44
2022/05/22 03:27:22;;;;;;;;;;;26.10;40.60;;;;;;5119684;28;1013;-44
2022/05/22 03:29:50;;;;;;;;;;;26.00;40.60;;;;;;5120080;28;1019;-44
2022/05/22 03:32:17;;;;;;;;;;;26.10;40.60;;;;;;5120058;28;1025;-44
2022/05/22 03:34:43;;;;;;;;;;;26.00;40.60;;;;;;5119692;28;1009;-44
2022/05/22 03:37:12;;;;;;;;;;;26.00;40.60;;;;;;5119471;28;1007;-43
2022/05/22 03:39:38;;;;;;;;;;;26.00;40.60;;;;;;5119128;28;1984;-44
2022/05/22 03:42:06;;;;;;;;;;;26.00;40.60;;;;;;5118499;28;988;-43
2022/05/22 03:44:32;;;;;;;;;;;26.00;40.60;;;;;;5119298;28;956;-44
2022/05/22 03:46:59;;;;;;;;;;;26.00;40.60;;;;;;5119185;28;933;-44
2022/05/22 03:49:26;;;;;;;;;;;26.00;40.60;;;;;;5118990;28;1027;-44
2022/05/22 03:51:52;;;;;;;;;;;26.00;40.60;;;;;;5118146;28;1004;-44
2022/05/22 03:54:20;;;;;;;;;;;26.10;40.50;;;;;;5119009;28;995;-43
2022/05/22 03:56:48;;;;;;;;;;;26.10;40.50;;;;;;5118699;28;980;-44
2022/05/22 03:59:15;;;;;;;;;;;26.00;40.50;;;;;;5118684;28;1978;-44
2022/05/22 04:01:41;;;;;;;;;;;26.10;40.60;;;;;;5119594;28;945;-43
2022/05/22 04:04:08;;;;;;;;;;;26.10;40.40;;;;;;5118588;28;1007;-41
2022/05/22 04:06:36;;;;;;;;;;;26.20;40.30;;;;;;5118509;28;1027;-42
2022/05/22 04:09:03;;;;;;;;;;;26.20;40.20;;;;;;5118556;28;952;-42
2022/05/22 04:11:32;;;;;;;;;;;26.20;40.30;;;;;;5117929;28;933;-44
2022/05/22 04:13:58;;;;;;;;;;;26.20;40.30;;;;;;5117225;28;949;-44
2022/05/22 04:16:25;;;;;;;;;;;26.20;40.30;;;;;;5118328;28;984;-44
2022/05/22 04:18:52;;;;;;;;;;;26.20;40.30;;;;;;5117768;28;1882;-43
2022/05/22 04:21:18;;;;;;;;;;;26.20;40.20;;;;;;5117636;28;948;-43
2022/05/22 04:26:31;;;;;;;;;;;26.20;40.30;;;;;;5118374;28;692;-37
2022/05/22 04:28:58;;;;;;;;;;;26.20;40.20;;;;;;5118426;28;973;-36
2022/05/22 04:31:25;;;;;;;;;;;26.20;40.30;;;;;;5118199;28;928;-35
2022/05/22 04:33:52;;;;;;;;;;;26.20;40.30;;;;;;5118592;28;1043;-35
2022/05/22 04:36:19;;;;;;;;;;;26.20;40.20;;;;;;5118521;28;1015;-35
2022/05/22 04:38:46;;;;;;;;;;;26.20;40.20;;;;;;5117652;28;1905;-35
2022/05/22 04:41:12;;;;;;;;;;;26.20;40.20;;;;;;5117905;28;951;-35
2022/05/22 04:43:40;;;;;;;;;;;26.20;40.20;;;;;;5117936;28;949;-35
2022/05/22 04:46:07;;;;;;;;;;;26.30;40.40;;;;;;5116963;28;1040;-35
2022/05/22 04:48:34;;;;;;;;;;;26.20;40.20;;;;;;5117549;28;960;-36
2022/05/22 04:51:02;;;;;;;;;;;26.30;40.30;;;;;;5117831;28;928;-35
2022/05/22 04:53:29;;;;;;;;;;;26.30;40.20;;;;;;5118261;28;1022;-37
2022/05/22 04:55:57;;;;;;;;;;;26.30;40.20;;;;;;5117939;28;1004;-35
2022/05/22 04:58:23;;;;;;;;;;;26.30;40.00;;;;;;5116924;28;976;-35
2022/05/22 05:00:52;;;;;;;;;;;26.30;40.00;;;;;;5117270;28;1984;-35
2022/05/22 05:03:19;;;;;;;;;;;26.30;40.10;;;;;;5117025;28;1080;-35
2022/05/22 05:05:52;;;;;;;;;;;26.30;40.10;;;;;;5117682;28;931;-35
2022/05/22 05:08:19;;;;;;;;;;;26.30;40.10;;;;;;5117846;28;1012;-36
2022/05/22 05:10:46;;;;;;;;;;;26.30;40.20;;;;;;5117437;28;1007;-35
2022/05/22 05:13:12;;;;;;;;;;;26.30;40.10;;;;;;5116918;28;971;-35
2022/05/22 05:15:40;;;;;;;;;;;26.30;40.10;;;;;;5117316;28;999;-35
2022/05/22 05:18:08;;;;;;;;;;;26.30;40.20;;;;;;5116370;28;1175;-35
2022/05/22 05:20:35;;;;;;;;;;;26.30;40.30;;;;;;5115370;28;1982;-35
2022/05/22 05:23:03;;;;;;;;;;;26.30;40.20;;;;;;5115243;28;961;-35
2022/05/22 05:25:29;;;;;;;;;;;26.30;40.10;;;;;;5116733;28;921;-35
2022/05/22 05:27:56;;;;;;;;;;;26.30;40.20;;;;;;5116024;28;1011;-35
2022/05/22 05:30:23;;;;;;;;;;;26.30;40.20;;;;;;5115606;28;940;-35
2022/05/22 05:32:54;;;;;;;;;;;26.30;40.20;;;;;;5117128;28;1167;-35
2022/05/22 05:35:22;;;;;;;;;;;26.30;40.20;;;;;;5116827;28;876;-35
2022/05/22 05:37:49;;;;;;;;;;;26.30;40.20;;;;;;5117907;28;1035;-35
2022/05/22 05:40:16;;;;;;;;;;;26.30;40.20;;;;;;5117438;28;1992;-35
2022/05/22 05:42:43;;;;;;;;;;;26.40;40.20;;;;;;5117262;28;1043;-35
2022/05/22 05:45:11;;;;;;;;;;;26.40;40.00;;;;;;5115940;28;983;-36
2022/05/22 05:47:38;;;;;;;;;;;26.40;40.20;;;;;;5115766;28;933;-35
2022/05/22 05:50:06;;;;;;;;;;;26.40;40.20;;;;;;5115322;28;1028;-43
2022/05/22 05:52:34;;;;;;;;;;;26.30;40.20;;;;;;5114892;28;859;-43
2022/05/22 05:55:00;;;;;;;;;;;26.40;40.20;;;;;;5115679;28;1009;-44
2022/05/22 05:57:27;;;;;;;;;;;26.40;40.20;;;;;;5115452;28;976;-44
2022/05/22 05:59:54;;;;;;;;;;;26.40;40.20;;;;;;5115219;28;1909;-45
2022/05/22 06:02:22;;;;;;;;;;;26.40;40.20;;;;;;5115320;28;1026;-45
2022/05/22 06:04:49;;;;;;;;;;;26.40;40.10;;;;;;5117755;28;1256;-44
2022/05/22 06:07:16;;;;;;;;;;;26.40;40.20;;;;;;5119322;28;972;-44
2022/05/22 06:09:44;;;;;;;;;;;26.40;40.10;;;;;;5119693;28;960;-45
2022/05/22 06:12:10;;;;;;;;;;;26.40;40.30;;;;;;5119532;28;978;-45
2022/05/22 06:14:37;;;;;;;;;;;26.40;40.30;;;;;;5118762;28;952;-44
2022/05/22 06:17:04;;;;;;;;;;;26.40;40.20;;;;;;5119533;28;1012;-40
2022/05/22 06:22:16;;;;;;;;;;;26.40;40.30;;;;;;5119148;28;962;-44
2022/05/22 06:24:44;;;;;;;;;;;26.40;40.40;;;;;;5119146;28;1223;-44
2022/05/22 06:27:11;;;;;;;;;;;26.40;40.20;;;;;;5119764;28;1038;-35
2022/05/22 06:29:38;;;;;;;;;;;26.40;40.10;;;;;;5119433;28;1551;-35
2022/05/22 06:32:05;;;;;;;;;;;26.40;40.10;;;;;;5119766;28;985;-35
2022/05/22 06:34:33;;;;;;;;;;;26.40;40.20;;;;;;5121631;28;1000;-42
2022/05/22 06:37:01;;;;;;;;;;;26.40;40.20;;;;;;5119584;28;994;-45
2022/05/22 06:42:13;;;;;;;;;;;26.40;40.30;;;;;;5118770;28;879;-35
2022/05/22 06:44:40;;;;;;;;;;;26.40;40.40;;;;;;5116614;28;1051;-35
2022/05/22 06:47:07;;;;;;;;;;;26.40;40.30;;;;;;5117411;28;941;-35
2022/05/22 06:49:34;;;;;;;;;;;26.50;40.40;;;;;;5117081;28;996;-35
2022/05/22 06:52:00;;;;;;;;;;;26.50;40.20;;;;;;5117632;28;1015;-35
2022/05/22 06:54:30;;;;;;;;;;;26.50;40.40;;;;;;5116843;28;925;-36
2022/05/22 06:56:56;;;;;;;;;;;26.50;40.40;;;;;;5117365;28;952;-35
2022/05/22 06:59:24;;;;;;;;;;;26.50;40.30;;;;;;5117237;28;1905;-35
2022/05/22 07:01:51;;;;;;;;;;;26.50;40.20;;;;;;5117945;28;940;-35
2022/05/22 07:04:21;;;;;;;;;;;26.50;40.20;;;;;;5117558;28;1015;-36
2022/05/22 07:06:48;;;;;;;;;;;26.50;40.20;;;;;;5118825;28;920;-35
2022/05/22 07:09:15;;;;;;;;;;;26.50;40.20;;;;;;5118436;28;1013;-40
2022/05/22 07:11:41;;;;;;;;;;;26.50;40.20;;;;;;5118344;28;1667;-35
2022/05/22 07:14:09;;;;;;;;;;;26.60;40.20;;;;;;5118491;28;1021;-35
2022/05/22 07:16:37;;;;;;;;;;;26.60;40.30;;;;;;5118421;28;876;-36
2022/05/22 07:19:05;;;;;;;;;;;26.60;40.20;;;;;;5118317;28;1020;-35
2022/05/22 07:21:32;;;;;;;;;;;26.60;40.30;;;;;;5118712;28;1898;-35
2022/05/22 07:23:59;;;;;;;;;;;26.60;40.20;;;;;;5118291;28;1013;-36
2022/05/22 07:26:26;;;;;;;;;;;26.50;40.20;;;;;;5118010;28;1048;-35
2022/05/22 07:28:53;;;;;;;;;;;26.50;40.40;;;;;;5117819;28;990;-36
2022/05/22 07:31:21;;;;;;;;;;;26.50;40.40;;;;;;5117987;28;1007;-45
2022/05/22 07:33:49;;;;;;;;;;;26.60;40.30;;;;;;5117829;28;1032;-43
2022/05/22 07:36:16;;;;;;;;;;;26.60;40.20;;;;;;5119535;28;972;-43
2022/05/22 07:38:43;;;;;;;;;;;26.60;40.20;;;;;;5118626;28;1015;-44
2022/05/22 07:41:10;;;;;;;;;;;26.60;40.30;;;;;;5119190;28;1982;-45
2022/05/22 07:43:38;;;;;;;;;;;26.60;40.30;;;;;;5119059;28;925;-44
2022/05/22 07:46:04;;;;;;;;;;;26.60;40.30;;;;;;5118525;28;1025;-45
2022/05/22 07:48:31;;;;;;;;;;;26.60;40.20;;;;;;5118971;28;1060;-44
2022/05/22 07:51:00;;;;;;;;;;;26.60;40.10;;;;;;5119572;28;1773;-44
2022/05/22 07:53:27;;;;;;;;;;;26.60;40.30;;;;;;5119837;28;966;-44
2022/05/22 07:55:54;;;;;;;;;;;26.60;40.30;;;;;;5118753;28;1031;-45
2022/05/22 07:58:22;;;;;;;;;;;26.60;40.20;;;;;;5119289;28;1012;-43
2022/05/22 08:00:50;;;;;;;;;;;26.70;40.20;;;;;;5077848;28;1905;-44
2022/05/22 08:03:17;;;;;;;;;;;26.60;40.20;;;;;;5077195;28;1024;-43
2022/05/22 08:05:44;;;;;;;;;;;26.60;40.20;;;;;;5077943;28;932;-44
2022/05/22 08:08:12;;;;;;;;;;;26.60;40.30;;;;;;5077509;28;1418;-44
2022/05/22 08:10:40;;;;;;;;;;;26.60;40.30;;;;;;5077073;28;1350;-44
2022/05/22 08:13:08;;;;;;;;;;;26.60;40.40;;;;;;5077574;28;1044;-43
2022/05/22 08:15:36;;;;;;;;;;;26.60;40.30;;;;;;5077793;28;953;-44
2022/05/22 08:18:03;;;;;;;;;;;26.70;40.20;;;;;;5077937;28;991;-36
2022/05/22 08:20:33;;;;;;;;;;;26.60;40.30;;;;;;5077367;28;1902;-36
2022/05/22 08:23:01;;;;;;;;;;;26.60;40.50;;;;;;5076540;28;974;-36
2022/05/22 08:25:30;;;;;;;;;;;26.60;40.40;;;;;;5076125;28;1011;-36
2022/05/22 08:27:57;;;;;;;;;;;26.70;40.40;;;;;;5075658;28;945;-36
2022/05/22 08:30:25;;;;;;;;;;;26.70;40.30;;;;;;5074945;28;1091;-36
2022/05/22 08:32:52;;;;;;;;;;;26.70;40.20;;;;;;5074323;28;1346;-35
2022/05/22 08:35:20;;;;;;;;;;;26.70;40.50;;;;;;5074318;28;917;-38
2022/05/22 08:37:47;;;;;;;;;;;26.70;40.30;;;;;;5074533;28;1048;-35
2022/05/22 08:40:15;;;;;;;;;;;26.70;40.30;;;;;;5073118;28;1898;-35
2022/05/22 08:42:45;;;;;;;;;;;26.60;40.20;;;;;;5074914;28;904;-35
2022/05/22 08:45:15;;;;;;;;;;;26.70;40.20;;;;;;5074150;28;869;-43
2022/05/22 08:47:46;;;;;;;;;;;26.60;40.10;;;;;;5074284;28;916;-43
2022/05/22 08:50:13;;;;;;;;;;;26.60;40.10;;;;;;5074709;28;1008;-41
2022/05/22 08:52:43;;;;;;;;;;;26.60;40.10;;;;;;5074386;28;1016;-44
2022/05/22 08:55:12;;;;;;;;;;;26.60;40.20;;;;;;5074482;28;1009;-41
2022/05/22 09:00:29;;;;;;;;;;;26.60;40.00;;;;;;5108033;28;1975;-42
2022/05/22 09:02:59;;;;;;;;;;;26.60;39.90;;;;;;5114068;28;1016;-42
2022/05/22 09:05:29;;;;;;;;;;;26.60;40.00;;;;;;5114304;28;1008;-43
2022/05/22 09:07:59;;;;;;;;;;;26.60;40.00;;;;;;5115055;28;990;-41
2022/05/22 09:10:33;;;;;;;;;;;26.60;39.90;;;;;;5114112;28;984;-43
2022/05/22 09:13:03;;;;;;;;;;;26.60;39.90;;;;;;5113792;28;976;-43
2022/05/22 09:15:37;;;;;;;;;;;26.60;39.80;;;;;;5114747;28;980;-40
2022/05/22 09:18:06;;;;;;;;;;;26.60;39.80;;;;;;5113911;28;1013;-36
2022/05/22 09:20:44;;;;;;;;;;;26.60;39.80;;;;;;5114532;28;1909;-36
2022/05/22 09:23:25;;;;;;;;;;;26.60;39.70;;;;;;5114325;28;1031;-36
2022/05/22 09:25:56;;;;;;;;;;;26.60;39.80;;;;;;5114057;28;1802;-36
2022/05/22 09:28:29;;;;;;;;;;;26.60;39.70;;;;;;5114265;28;977;-37
2022/05/22 09:31:01;;;;;;;;;;;26.60;39.60;;;;;;5113482;28;979;-36
2022/05/22 09:33:31;;;;;;;;;;;26.60;39.60;;;;;;5113551;28;986;-35
2022/05/22 09:36:03;;;;;;;;;;;26.60;39.50;;;;;;5113986;28;943;-37
2022/05/22 09:38:37;;;;;;;;;;;26.60;39.50;;;;;;5114245;28;956;-36
2022/05/22 09:41:07;;;;;;;;;;;26.60;39.60;;;;;;5117056;28;1979;-36
2022/05/22 09:43:45;;;;;;;;;;;26.60;39.60;;;;;;5118881;28;992;-36
2022/05/22 09:46:22;;;;;;;;;;;26.70;39.40;;;;;;5117533;28;999;-36
2022/05/22 09:48:58;;;;;;;;;;;26.70;39.50;;;;;;5118269;28;977;-36
2022/05/22 09:51:31;;;;;;;;;;;26.70;39.50;;;;;;5116926;28;872;-36
2022/05/22 09:54:05;;;;;;;;;;;26.80;39.50;;;;;;5117947;28;1047;-38
2022/05/22 09:56:37;;;;;;;;;;;26.80;39.70;;;;;;5117047;28;937;-36
2022/05/22 09:59:13;;;;;;;;;;;26.90;39.50;;;;;;5117346;28;1212;-36
2022/05/22 10:01:43;;;;;;;;;;;26.90;38.10;;;;;;5117615;28;1977;-36
2022/05/22 10:04:19;;;;;;;;;;;26.80;37.80;;;;;;5117488;28;1096;-36
2022/05/22 10:06:49;;;;;;;;;;;26.90;37.50;;;;;;5117340;28;1019;-36
2022/05/22 10:09:22;;;;;;;;;;;26.80;37.40;;;;;;5117363;28;1078;-36
2022/05/22 10:11:56;;;;;;;;;;;26.70;37.70;;;;;;5116108;28;933;-36
2022/05/22 10:14:30;;;;;;;;;;;26.80;37.40;;;;;;5116931;28;972;-36
2022/05/22 10:17:08;;;;;;;;;;;26.70;37.60;;;;;;5115788;28;982;-36
2022/05/22 10:19:39;;;;;;;;;;;26.70;38.20;;;;;;5115924;28;961;-37
2022/05/22 10:22:11;;;;;;;;;;;26.70;38.80;;;;;;5115867;28;1910;-36
2022/05/22 10:24:44;;;;;;;;;;;26.70;38.90;;;;;;5116203;28;1012;-36
2022/05/22 10:27:18;;;;;;;;;;;26.70;39.00;;;;;;5116873;28;868;-36
2022/05/22 10:29:49;;;;;;;;;;;26.80;39.00;;;;;;5115565;28;1000;-35
2022/05/22 10:32:20;;;;;;;;;;;26.80;39.20;;;;;;5115594;28;955;-36
2022/05/22 10:34:49;;;;;;;;;;;26.80;39.20;;;;;;5116611;28;1009;-36
2022/05/22 10:37:21;;;;;;;;;;;26.90;39.20;;;;;;5116683;28;981;-35
2022/05/22 10:39:48;;;;;;;;;;;26.80;39.00;;;;;;5115072;28;1111;-36
2022/05/22 10:45:05;;;;;;;;;;;26.80;39.30;;;;;;5115930;28;661;-36
2022/05/22 10:47:34;;;;;;;;;;;26.80;39.50;;;;;;5115196;28;938;-35
2022/05/22 10:50:02;;;;;;;;;;;26.90;39.40;;;;;;5116362;28;945;-44
2022/05/22 10:52:31;;;;;;;;;;;26.90;39.50;;;;;;5114674;28;1136;-43
2022/05/22 10:54:58;;;;;;;;;;;26.90;39.60;;;;;;5115359;28;1063;-42
2022/05/22 10:57:26;;;;;;;;;;;26.90;39.80;;;;;;5115400;28;984;-44
2022/05/22 10:59:53;;;;;;;;;;;27.00;39.60;;;;;;5114393;28;1197;-43
2022/05/22 11:02:23;;;;;;;;;;;27.00;39.60;;;;;;5114768;28;1906;-36
2022/05/22 11:04:52;;;;;;;;;;;27.00;39.60;;;;;;5115555;28;976;-37
2022/05/22 11:07:29;;;;;;;;;;;27.00;39.60;;;;;;5115344;28;992;-36
2022/05/22 11:09:57;;;;;;;;;;;27.00;39.30;;;;;;5114816;28;885;-36
2022/05/22 11:12:25;;;;;;;;;;;27.00;39.50;;;;;;5114821;28;888;-37
2022/05/22 11:14:52;;;;;;;;;;;27.00;39.10;;;;;;5115342;28;996;-37
2022/05/22 11:17:20;;;;;;;;;;;27.00;39.10;;;;;;5115526;28;976;-36
2022/05/22 11:19:47;;;;;;;;;;;27.10;39.40;;;;;;5114796;28;973;-36
2022/05/22 11:22:27;;;;;;;;;;;27.00;39.70;;;;;;5114458;28;1992;-36
2022/05/22 11:24:58;;;;;;;;;;;27.00;39.70;;;;;;5115057;28;944;-42
2022/05/22 11:27:30;;;;;;;;;;;27.00;39.70;;;;;;5115196;28;1026;-43
2022/05/22 11:30:07;;;;;;;;;;;27.00;39.60;;;;;;5115232;28;1000;-43
2022/05/22 11:32:41;;;;;;;;;;;27.00;39.60;;;;;;5114544;28;1011;-42
2022/05/22 11:35:20;;;;;;;;;;;27.00;39.40;;;;;;5114773;28;1846;-44
2022/05/22 11:37:55;;;;;;;;;;;27.00;39.50;;;;;;5113997;28;924;-43
2022/05/22 11:40:27;;;;;;;;;;;27.00;39.60;;;;;;5115170;28;956;-44
2022/05/22 11:42:59;;;;;;;;;;;27.00;39.60;;;;;;5113746;28;1985;-43
2022/05/22 11:45:33;;;;;;;;;;;27.00;39.70;;;;;;5114074;28;960;-43
2022/05/22 11:48:15;;;;;;;;;;;27.00;39.60;;;;;;5113993;28;1008;-42
2022/05/22 11:50:47;;;;;;;;;;;27.00;39.60;;;;;;5113928;28;963;-42
2022/05/22 11:53:31;;;;;;;;;;;27.10;39.70;;;;;;5113873;28;1010;-43
2022/05/22 11:56:03;;;;;;;;;;;27.10;39.70;;;;;;5114334;28;964;-43
2022/05/22 11:58:34;;;;;;;;;;;27.00;39.80;;;;;;5113793;28;1019;-43
2022/05/22 12:01:05;;;;;;;;;;;27.10;39.70;;;;;;5114089;28;1909;-44
2022/05/22 12:03:43;;;;;;;;;;;27.10;39.80;;;;;;5113311;28;1012;-43
2022/05/22 12:06:16;;;;;;;;;;;27.10;39.80;;;;;;5114895;28;844;-44
2022/05/22 12:08:49;;;;;;;;;;;27.00;39.80;;;;;;5114180;28;1047;-43
2022/05/22 12:11:19;;;;;;;;;;;27.00;39.70;;;;;;5113996;28;988;-41
2022/05/22 12:13:50;;;;;;;;;;;27.10;39.90;;;;;;5115105;28;919;-42
2022/05/22 12:16:20;;;;;;;;;;;27.00;39.80;;;;;;5114860;28;996;-43
2022/05/22 12:18:55;;;;;;;;;;;27.10;39.80;;;;;;5114755;28;988;-44
2022/05/22 12:21:26;;;;;;;;;;;27.10;39.90;;;;;;5114086;28;1977;-44
2022/05/22 12:23:57;;;;;;;;;;;27.00;40.00;;;;;;5113369;28;981;-43
2022/05/22 12:26:25;;;;;;;;;;;27.10;40.00;;;;;;5113436;28;909;-44
2022/05/22 12:28:54;;;;;;;;;;;27.00;39.90;;;;;;5113227;28;891;-44
2022/05/22 12:31:24;;;;;;;;;;;27.10;40.10;;;;;;5113321;28;976;-47
2022/05/22 12:33:52;;;;;;;;;;;27.20;40.40;;;;;;5113101;28;930;-46
2022/05/22 12:36:22;;;;;;;;;;;27.30;40.50;;;;;;5112447;28;984;-46
2022/05/22 12:38:52;;;;;;;;;;;27.20;41.60;;;;;;5112985;28;947;-46
2022/05/22 12:41:28;;;;;;;;;;;27.20;40.70;;;;;;5112553;28;1996;-46
2022/05/22 12:43:56;;;;;;;;;;;27.20;40.90;;;;;;5113261;28;944;-46
2022/05/22 12:46:23;;;;;;;;;;;27.20;40.90;;;;;;5113782;28;940;-45
2022/05/22 12:48:51;;;;;;;;;;;27.20;41.00;;;;;;5113002;28;932;-46
2022/05/22 12:51:18;;;;;;;;;;;27.20;40.90;;;;;;5112517;28;993;-46
2022/05/22 12:53:47;;;;;;;;;;;27.20;40.80;;;;;;5112537;28;1406;-48
2022/05/22 12:56:18;;;;;;;;;;;27.20;41.00;;;;;;5113285;28;880;-48
2022/05/22 12:58:51;;;;;;;;;;;27.20;40.80;;;;;;5113547;28;1117;-48
2022/05/22 13:01:23;;;;;;;;;;;27.20;40.60;;;;;;5113162;28;1988;-48
2022/05/22 13:03:52;;;;;;;;;;;27.20;40.60;;;;;;5108344;28;1346;-48
2022/05/22 13:06:23;;;;;;;;;;;27.20;40.70;;;;;;5109421;28;943;-47
2022/05/22 13:08:57;;;;;;;;;;;27.20;40.70;;;;;;5111357;28;1452;-47
2022/05/22 13:11:30;;;;;;;;;;;27.20;40.90;;;;;;5114143;28;1735;-47
2022/05/22 13:13:59;;;;;;;;;;;27.20;40.50;;;;;;5115669;28;1533;-47
2022/05/22 13:16:28;;;;;;;;;;;27.20;40.70;;;;;;5119396;28;945;-48
2022/05/22 13:18:55;;;;;;;;;;;27.20;40.70;;;;;;5118295;28;1002;-47
2022/05/22 13:21:29;;;;;;;;;;;27.30;40.70;;;;;;5119316;28;1910;-46
2022/05/22 13:24:02;;;;;;;;;;;27.30;41.10;;;;;;5118969;28;1021;-47
2022/05/22 13:26:30;;;;;;;;;;;27.30;41.20;;;;;;5118304;28;972;-47
2022/05/22 13:29:07;;;;;;;;;;;27.30;41.00;;;;;;5118235;28;1916;-47
2022/05/22 13:31:39;;;;;;;;;;;27.40;41.10;;;;;;5117793;28;924;-47
2022/05/22 13:34:17;;;;;;;;;;;27.50;41.00;;;;;;5117195;28;981;-47
2022/05/22 13:36:47;;;;;;;;;;;27.40;40.70;;;;;;5116816;28;1004;-47
2022/05/22 13:39:21;;;;;;;;;;;27.40;40.20;;;;;;5116214;28;1023;-47
2022/05/22 13:42:14;;;;;;;;;;;27.40;40.00;;;;;;5116786;28;1988;-47
2022/05/22 13:45:03;;;;;;;;;;;27.40;40.00;;;;;;5117255;28;949;-47
2022/05/22 13:47:40;;;;;;;;;;;27.50;39.80;;;;;;5082042;28;2249;-48
2022/05/22 13:53:16;;;;;;;;;;;27.40;39.20;;;;;;5117440;28;912;-48
2022/05/22 13:55:45;;;;;;;;;;;27.40;39.10;;;;;;5112788;28;1706;-48
2022/05/22 13:58:15;;;;;;;;;;;27.40;38.70;;;;;;5115418;28;999;-48
2022/05/22 14:00:42;;;;;;;;;;;27.40;38.40;;;;;;5115716;28;1575;-48
2022/05/22 14:03:26;;;;;;;;;;;27.40;38.40;;;;;;5116169;28;1910;-48
2022/05/22 14:05:55;;;;;;;;;;;27.40;38.20;;;;;;5113288;28;1529;-49
2022/05/22 14:08:25;;;;;;;;;;;27.50;38.20;;;;;;5116876;28;1462;-48
2022/05/22 14:10:57;;;;;;;;;;;27.40;38.00;;;;;;5115808;28;1020;-48
2022/05/22 14:13:26;;;;;;;;;;;27.40;37.90;;;;;;5115786;28;1021;-48
2022/05/22 14:15:54;;;;;;;;;;;27.50;37.90;;;;;;5115778;28;988;-48
2022/05/22 14:18:24;;;;;;;;;;;27.50;37.70;;;;;;5116154;28;1600;-48
2022/05/22 14:20:52;;;;;;;;;;;27.50;37.60;;;;;;5116657;28;880;-38
2022/05/22 14:23:23;;;;;;;;;;;27.50;37.70;;;;;;5115799;28;1891;-37
2022/05/22 14:25:55;;;;;;;;;;;27.50;37.80;;;;;;5115901;28;1556;-47
2022/05/22 14:28:27;;;;;;;;;;;27.50;37.50;;;;;;5116294;28;961;-37
2022/05/22 14:30:55;;;;;;;;;;;27.50;37.40;;;;;;5115860;28;1427;-46
2022/05/22 14:33:24;;;;;;;;;;;27.50;37.60;;;;;;5116101;28;943;-45
2022/05/22 14:35:53;;;;;;;;;;;27.50;37.30;;;;;;5115256;28;1021;-46
2022/05/22 14:38:22;;;;;;;;;;;27.50;37.20;;;;;;5114815;28;904;-46
2022/05/22 14:40:50;;;;;;;;;;;27.60;37.30;;;;;;5115590;28;996;-46
2022/05/22 14:43:18;;;;;;;;;;;27.60;37.30;;;;;;5115208;28;1902;-45
2022/05/22 14:45:52;;;;;;;;;;;27.60;37.30;;;;;;5116151;28;984;-46
2022/05/22 14:48:22;;;;;;;;;;;27.60;37.40;;;;;;5114919;28;1656;-46
2022/05/22 14:50:52;;;;;;;;;;;27.60;37.40;;;;;;5117833;28;992;-46
2022/05/22 14:53:22;;;;;;;;;;;27.60;37.40;;;;;;5117771;28;1004;-46
2022/05/22 14:55:51;;;;;;;;;;;27.60;37.30;;;;;;5117959;28;1191;-46
2022/05/22 14:58:20;;;;;;;;;;;27.70;37.30;;;;;;5117567;28;1525;-46
2022/05/22 15:00:52;;;;;;;;;;;27.70;37.20;;;;;;5115427;28;1160;-47
2022/05/22 15:03:21;;;;;;;;;;;27.70;37.30;;;;;;5117731;28;2127;-46
2022/05/22 15:05:54;;;;;;;;;;;27.70;37.20;;;;;;5117431;28;1022;-47
2022/05/22 15:08:23;;;;;;;;;;;27.70;37.00;;;;;;5116528;28;1252;-46
2022/05/22 15:10:50;;;;;;;;;;;27.70;37.00;;;;;;5117610;28;884;-46